Time;durP1;ratioP1;P1;durP2;ratioP2;P2;SDS_P1;SDS_P2;PMS_P1;PMS_P2;Temp;Humidity;BMP_temperature;BMP_pressure;BME280_temperature;BME280_humidity;BME280_pressure;Samples;Min_cycle;Max_cycle;Signal;HPM_P1;HPM_P2
2022/03/02 00:00:14;;;;;;;50.80;25.13;;;5.20;99.90;;;;;;5057584;23;20033;-76
2022/03/02 00:02:41;;;;;;;52.53;25.65;;;5.20;99.90;;;;;;5038595;28;20041;-76
2022/03/02 00:05:08;;;;;;;51.20;25.38;;;5.10;99.90;;;;;;5039710;28;20438;-76
2022/03/02 00:07:33;;;;;;;54.08;26.45;;;5.20;99.90;;;;;;5023052;28;20057;-78
2022/03/02 00:09:59;;;;;;;52.80;26.33;;;5.20;99.90;;;;;;5041820;28;20021;-77
2022/03/02 00:12:24;;;;;;;50.78;25.15;;;5.10;99.90;;;;;;5043796;28;20032;-77
2022/03/02 00:14:50;;;;;;;52.85;25.35;;;5.10;99.90;;;;;;5021723;28;20040;-77
2022/03/02 00:17:15;;;;;;;59.70;26.55;;;5.10;99.90;;;;;;5015809;28;20367;-78
2022/03/02 00:19:41;;;;;;;54.63;26.35;;;5.10;99.90;;;;;;5033798;28;20559;-77
2022/03/02 00:22:07;;;;;;;47.88;24.90;;;5.10;99.90;;;;;;5033945;28;20259;-78
2022/03/02 00:24:33;;;;;;;49.42;25.35;;;5.10;99.90;;;;;;5033731;28;20466;-76
2022/03/02 00:26:59;;;;;;;54.50;25.90;;;5.10;99.90;;;;;;5033536;28;20034;-77
2022/03/02 00:29:26;;;;;;;55.83;25.80;;;5.10;99.90;;;;;;5034508;28;20218;-76
2022/03/02 00:31:52;;;;;;;48.05;25.80;;;5.00;99.90;;;;;;5033718;28;20068;-77
2022/03/02 00:34:17;;;;;;;55.00;25.98;;;4.90;99.90;;;;;;5034628;28;20033;-77
2022/03/02 00:36:43;;;;;;;51.72;26.05;;;5.10;99.90;;;;;;5034062;28;20033;-78
2022/03/02 00:39:09;;;;;;;53.40;26.83;;;5.10;99.90;;;;;;5033825;28;20498;-77
2022/03/02 00:41:34;;;;;;;51.03;26.67;;;5.00;99.90;;;;;;5033883;28;20025;-77
2022/03/02 00:44:01;;;;;;;56.40;26.98;;;5.00;99.90;;;;;;5033636;28;20037;-76
2022/03/02 00:46:29;;;;;;;50.05;26.25;;;5.00;99.90;;;;;;5033337;28;20026;-76
2022/03/02 00:48:56;;;;;;;53.03;26.52;;;5.00;99.90;;;;;;5033463;28;20045;-77
2022/03/02 00:51:22;;;;;;;52.53;26.85;;;4.90;99.90;;;;;;5033412;28;20060;-78
2022/03/02 00:53:49;;;;;;;51.05;25.45;;;4.80;99.90;;;;;;5033563;28;20471;-78
2022/03/02 00:56:14;;;;;;;52.83;26.13;;;4.90;99.90;;;;;;5033225;28;20029;-78
2022/03/02 00:58:40;;;;;;;54.95;26.08;;;4.80;99.90;;;;;;5033247;28;20075;-77
2022/03/02 01:01:05;;;;;;;57.72;26.40;;;4.80;99.90;;;;;;5033302;28;20479;-78
2022/03/02 01:03:31;;;;;;;52.55;26.50;;;4.80;99.90;;;;;;5015435;28;20426;-77
2022/03/02 01:05:56;;;;;;;49.83;26.25;;;4.70;99.90;;;;;;5033081;28;20018;-78
2022/03/02 01:08:22;;;;;;;56.00;26.58;;;4.70;99.90;;;;;;5052381;28;20014;-77
2022/03/02 01:10:47;;;;;;;53.72;26.63;;;4.70;99.90;;;;;;5041010;28;20056;-77
2022/03/02 01:13:13;;;;;;;52.65;26.83;;;4.70;99.90;;;;;;5058114;28;20014;-77
2022/03/02 01:15:38;;;;;;;57.55;27.70;;;4.70;99.90;;;;;;5057492;28;20021;-76
2022/03/02 01:18:04;;;;;;;63.00;29.42;;;4.60;99.90;;;;;;5057803;28;20041;-78
2022/03/02 01:20:29;;;;;;;57.65;28.80;;;4.50;99.90;;;;;;5057561;28;20073;-78
2022/03/02 01:22:55;;;;;;;55.15;27.95;;;4.50;99.90;;;;;;5057672;28;20021;-76
2022/03/02 01:25:20;;;;;;;57.78;27.42;;;4.50;99.90;;;;;;5038864;28;20037;-77
2022/03/02 01:27:46;;;;;;;57.42;27.00;;;4.50;99.90;;;;;;5033721;28;20037;-78
2022/03/02 01:30:12;;;;;;;52.53;26.67;;;4.50;99.90;;;;;;5033034;28;20484;-76
2022/03/02 01:32:38;;;;;;;56.33;26.48;;;4.50;99.90;;;;;;5032329;28;20121;-77
2022/03/02 01:35:03;;;;;;;53.05;27.35;;;4.50;99.90;;;;;;5032296;28;20386;-77
2022/03/02 01:37:30;;;;;;;54.47;27.27;;;4.50;99.90;;;;;;5031960;28;20577;-78
2022/03/02 01:39:55;;;;;;;57.30;28.52;;;4.60;99.90;;;;;;5032199;28;20023;-78
2022/03/02 01:42:21;;;;;;;53.47;27.20;;;4.60;99.90;;;;;;5032433;28;20033;-76
2022/03/02 01:44:47;;;;;;;56.17;27.35;;;4.60;99.90;;;;;;5032327;28;20424;-76
2022/03/02 01:47:12;;;;;;;61.60;28.88;;;4.70;99.90;;;;;;5032118;28;20030;-78
2022/03/02 01:49:38;;;;;;;58.95;30.08;;;4.70;99.90;;;;;;5032430;28;20386;-76
2022/03/02 01:52:03;;;;;;;57.78;27.88;;;4.70;99.90;;;;;;5033740;28;20017;-77
2022/03/02 01:54:29;;;;;;;59.08;28.58;;;4.70;99.90;;;;;;5033157;28;20486;-76
2022/03/02 01:56:55;;;;;;;59.60;29.00;;;4.70;99.90;;;;;;5032041;28;20030;-77
2022/03/02 01:59:20;;;;;;;56.28;29.27;;;4.70;99.90;;;;;;5032246;28;20080;-77
2022/03/02 02:01:47;;;;;;;57.67;29.15;;;4.80;99.90;;;;;;5031971;28;20033;-78
2022/03/02 02:04:13;;;;;;;55.90;27.25;;;4.80;99.90;;;;;;5013755;28;20104;-77
2022/03/02 02:06:38;;;;;;;62.05;30.17;;;4.80;99.90;;;;;;5031899;28;20489;-77
2022/03/02 02:09:06;;;;;;;62.00;30.15;;;4.80;99.90;;;;;;5032096;28;20429;-77
2022/03/02 02:11:32;;;;;;;61.65;29.10;;;4.80;99.90;;;;;;5031099;28;20437;-78
2022/03/02 02:13:58;;;;;;;69.45;30.20;;;4.80;99.90;;;;;;5032019;28;20116;-76
2022/03/02 02:16:24;;;;;;;62.05;29.95;;;4.80;99.90;;;;;;5031935;28;20033;-78
2022/03/02 02:18:56;;;;;;;63.17;30.08;;;4.80;99.90;;;;;;5032143;28;20029;-77
2022/03/02 02:21:22;;;;;;;60.22;29.73;;;4.70;99.90;;;;;;5031855;28;20022;-77
2022/03/02 02:23:48;;;;;;;57.63;28.65;;;4.70;99.90;;;;;;5032133;28;20498;-77
2022/03/02 02:26:14;;;;;;;62.08;29.33;;;4.70;99.90;;;;;;5032078;28;20071;-77
2022/03/02 02:28:40;;;;;;;63.03;29.17;;;4.80;99.90;;;;;;5032130;28;20047;-78
2022/03/02 02:31:05;;;;;;;58.25;29.25;;;4.80;99.90;;;;;;5031891;28;20025;-77
2022/03/02 02:33:31;;;;;;;59.20;28.88;;;4.80;99.90;;;;;;5014471;28;20175;-78
2022/03/02 02:35:57;;;;;;;58.50;29.40;;;4.80;99.90;;;;;;5032163;28;20176;-78
2022/03/02 02:38:23;;;;;;;60.70;29.95;;;4.80;99.90;;;;;;5032256;28;20033;-77
2022/03/02 02:40:50;;;;;;;62.45;30.50;;;4.80;99.90;;;;;;5032027;28;20029;-77
2022/03/02 02:43:17;;;;;;;65.20;31.48;;;4.80;99.90;;;;;;5032005;28;20084;-76
2022/03/02 02:45:42;;;;;;;55.08;30.02;;;4.70;99.90;;;;;;5031549;28;20032;-76
2022/03/02 02:48:08;;;;;;;60.92;30.13;;;4.60;99.90;;;;;;5032130;28;20021;-77
2022/03/02 02:50:34;;;;;;;64.95;30.92;;;4.60;99.90;;;;;;5032268;28;20021;-78
2022/03/02 02:53:04;;;;;;;58.33;29.15;;;4.60;99.90;;;;;;5032402;28;20025;-76
2022/03/02 02:55:30;;;;;;;60.85;29.63;;;4.50;99.90;;;;;;5031620;28;20029;-77
2022/03/02 02:57:57;;;;;;;62.75;30.83;;;4.50;99.90;;;;;;5031503;28;20064;-76
2022/03/02 03:00:26;;;;;;;63.63;29.75;;;4.50;99.90;;;;;;5031326;28;20033;-76
2022/03/02 03:02:53;;;;;;;61.88;30.95;;;4.50;99.90;;;;;;5031386;28;20501;-78
2022/03/02 03:05:22;;;;;;;54.53;29.60;;;4.50;99.90;;;;;;5030996;28;20091;-77
2022/03/02 03:07:48;;;;;;;62.80;31.13;;;4.50;99.90;;;;;;5032291;28;20044;-77
2022/03/02 03:10:15;;;;;;;62.65;29.63;;;4.50;99.90;;;;;;5031520;28;20030;-76
2022/03/02 03:12:42;;;;;;;57.92;29.17;;;4.50;99.90;;;;;;5031222;28;20030;-78
2022/03/02 03:15:09;;;;;;;63.45;30.25;;;4.50;99.90;;;;;;5033615;28;20052;-77
2022/03/02 03:17:35;;;;;;;59.30;28.98;;;4.60;99.90;;;;;;5034834;28;20025;-77
2022/03/02 03:20:02;;;;;;;57.72;29.02;;;4.60;99.90;;;;;;5039099;28;20458;-78
2022/03/02 03:22:28;;;;;;;61.28;30.73;;;4.60;99.90;;;;;;5036533;28;20025;-78
2022/03/02 03:24:53;;;;;;;58.55;29.90;;;4.50;99.90;;;;;;5035591;28;20025;-77
2022/03/02 03:27:19;;;;;;;60.70;29.23;;;4.50;99.90;;;;;;5034452;28;20029;-77
2022/03/02 03:29:45;;;;;;;52.72;27.60;;;4.50;99.90;;;;;;5034814;28;20029;-76
2022/03/02 03:32:11;;;;;;;62.28;30.33;;;4.50;99.90;;;;;;5044022;28;20433;-77
2022/03/02 03:34:37;;;;;;;55.67;30.00;;;4.40;99.90;;;;;;5037611;28;20474;-79
2022/03/02 03:37:03;;;;;;;58.92;29.73;;;4.40;99.90;;;;;;5038750;28;20017;-75
2022/03/02 03:39:28;;;;;;;57.45;28.95;;;4.40;99.90;;;;;;5039138;28;20473;-80
2022/03/02 03:41:55;;;;;;;61.08;30.23;;;4.40;99.90;;;;;;5040127;28;20049;-81
2022/03/02 03:44:25;;;;;;;59.13;28.77;;;4.40;99.90;;;;;;5041002;28;20034;-81
2022/03/02 03:46:51;;;;;;;58.08;29.50;;;4.30;99.90;;;;;;5024265;28;20575;-82
2022/03/02 03:49:17;;;;;;;66.55;29.42;;;4.30;99.90;;;;;;5040746;28;20390;-81
2022/03/02 03:51:42;;;;;;;61.92;31.25;;;4.30;99.90;;;;;;5041816;28;20023;-82
2022/03/02 03:54:09;;;;;;;61.50;30.65;;;4.30;99.90;;;;;;5022545;28;20079;-81
2022/03/02 03:56:35;;;;;;;56.97;29.38;;;4.30;99.90;;;;;;5023572;28;20383;-78
2022/03/02 03:59:01;;;;;;;60.53;29.75;;;4.30;99.90;;;;;;5042931;28;20086;-80
2022/03/02 04:01:27;;;;;;;65.78;31.90;;;4.30;99.90;;;;;;5041421;28;20104;-81
2022/03/02 04:03:53;;;;;;;68.18;32.53;;;4.30;99.90;;;;;;5023571;28;20494;-80
2022/03/02 04:06:19;;;;;;;64.28;31.85;;;4.20;99.90;;;;;;5040701;28;20104;-81
2022/03/02 04:08:45;;;;;;;64.50;31.45;;;4.20;99.90;;;;;;5040675;28;20061;-80
2022/03/02 04:11:10;;;;;;;66.85;31.00;;;4.10;99.90;;;;;;5042049;28;20091;-79
2022/03/02 04:13:36;;;;;;;64.88;31.67;;;4.00;99.90;;;;;;5039160;28;20026;-81
2022/03/02 04:16:02;;;;;;;64.93;30.38;;;3.90;99.90;;;;;;5039959;28;20034;-80
2022/03/02 04:18:28;;;;;;;62.15;31.30;;;3.90;99.90;;;;;;5037610;28;20025;-77
2022/03/02 04:20:53;;;;;;;63.42;31.35;;;3.90;99.90;;;;;;5035000;28;20033;-77
2022/03/02 04:23:21;;;;;;;60.85;30.88;;;3.80;99.90;;;;;;5037822;28;20096;-79
2022/03/02 04:25:48;;;;;;;54.38;29.27;;;3.90;99.90;;;;;;5018139;28;20025;-78
2022/03/02 04:28:13;;;;;;;68.90;32.65;;;3.80;99.90;;;;;;5035621;28;20104;-80
2022/03/02 04:30:39;;;;;;;66.03;32.47;;;3.80;99.90;;;;;;5036454;28;20057;-78
2022/03/02 04:33:05;;;;;;;64.00;32.08;;;3.70;99.90;;;;;;5035134;28;20021;-78
2022/03/02 04:35:31;;;;;;;68.93;32.85;;;3.70;99.90;;;;;;5036058;28;20056;-80
2022/03/02 04:37:57;;;;;;;73.72;32.42;;;3.60;99.90;;;;;;5037528;28;20028;-78
2022/03/02 04:40:23;;;;;;;59.53;30.20;;;3.60;99.90;;;;;;5021288;28;20551;-81
2022/03/02 04:42:48;;;;;;;68.55;33.25;;;3.50;99.90;;;;;;5037099;28;20069;-80
2022/03/02 04:45:14;;;;;;;61.90;31.15;;;3.50;99.90;;;;;;5039337;28;20026;-79
2022/03/02 04:47:39;;;;;;;61.65;31.00;;;3.60;99.90;;;;;;5024358;28;20026;-79
2022/03/02 04:50:07;;;;;;;62.75;31.80;;;3.50;99.90;;;;;;5038362;28;20505;-79
2022/03/02 04:52:33;;;;;;;63.15;31.13;;;3.50;99.90;;;;;;5035510;28;20355;-79
2022/03/02 04:55:07;;;;;;;62.25;31.95;;;3.40;99.90;;;;;;5035672;28;20108;-79
2022/03/02 04:57:38;;;;;;;66.65;32.20;;;3.40;99.90;;;;;;5038956;28;20034;-79
2022/03/02 05:00:08;;;;;;;68.03;32.58;;;3.30;99.90;;;;;;5044779;28;20440;-79
2022/03/02 05:02:33;;;;;;;67.95;31.70;;;3.20;99.90;;;;;;5037712;28;20608;-80
2022/03/02 05:04:59;;;;;;;62.38;30.10;;;3.20;99.90;;;;;;5034576;28;20087;-78
2022/03/02 05:07:24;;;;;;;64.32;32.53;;;3.10;99.90;;;;;;5034539;28;20091;-78
2022/03/02 05:09:50;;;;;;;65.60;30.92;;;3.10;99.90;;;;;;5033527;28;20030;-79
2022/03/02 05:12:15;;;;;;;63.60;31.80;;;3.10;99.90;;;;;;5033731;28;20048;-79
2022/03/02 05:14:41;;;;;;;87.82;38.35;;;3.10;99.90;;;;;;5036205;28;20033;-79
2022/03/02 05:17:06;;;;;;;65.65;32.38;;;3.00;99.90;;;;;;5035533;28;20033;-79
2022/03/02 05:19:33;;;;;;;63.22;31.08;;;3.10;99.90;;;;;;5018843;28;20032;-80
2022/03/02 05:21:59;;;;;;;67.07;31.65;;;3.10;99.90;;;;;;5022315;28;20030;-79
2022/03/02 05:24:24;;;;;;;60.33;30.77;;;3.10;99.90;;;;;;5039148;28;20044;-79
2022/03/02 05:26:50;;;;;;;65.22;30.92;;;3.10;99.90;;;;;;5020632;28;20029;-80
2022/03/02 05:29:15;;;;;;;61.70;31.35;;;3.10;99.90;;;;;;5034128;28;20025;-80
2022/03/02 05:31:41;;;;;;;62.85;31.88;;;3.10;99.90;;;;;;5032871;28;20564;-80
2022/03/02 05:34:06;;;;;;;67.72;30.95;;;3.00;99.90;;;;;;5029644;28;20026;-80
2022/03/02 05:36:32;;;;;;;54.95;28.75;;;3.10;99.90;;;;;;5038260;28;20486;-80
2022/03/02 05:38:58;;;;;;;57.80;30.05;;;3.00;99.90;;;;;;5038437;28;20069;-79
2022/03/02 05:41:23;;;;;;;61.28;31.50;;;3.00;99.90;;;;;;5037198;28;20036;-79
2022/03/02 05:43:49;;;;;;;70.22;31.95;;;3.00;99.90;;;;;;5025489;28;20044;-78
2022/03/02 05:46:15;;;;;;;63.55;32.55;;;2.90;99.90;;;;;;5028127;28;20030;-82
2022/03/02 05:48:41;;;;;;;57.67;30.05;;;2.90;99.90;;;;;;5047246;28;20025;-80
2022/03/02 05:51:06;;;;;;;70.93;33.03;;;2.90;99.90;;;;;;5045163;28;20026;-79
2022/03/02 05:53:32;;;;;;;69.13;33.17;;;2.80;99.90;;;;;;5047224;28;20406;-79
2022/03/02 05:55:57;;;;;;;68.60;32.33;;;2.90;99.90;;;;;;5048930;28;20025;-80
2022/03/02 05:58:25;;;;;;;70.68;34.50;;;2.90;99.90;;;;;;5044002;28;20026;-80
2022/03/02 06:00:51;;;;;;;62.97;31.38;;;2.90;99.90;;;;;;5054087;23;20129;-74
2022/03/02 06:03:17;;;;;;;65.75;32.72;;;2.80;99.90;;;;;;5053682;28;20017;-73
2022/03/02 06:05:42;;;;;;;63.85;32.40;;;2.70;99.90;;;;;;5052038;28;20525;-74
2022/03/02 06:08:09;;;;;;;67.82;31.55;;;2.70;99.90;;;;;;5052391;28;20025;-74
2022/03/02 06:10:35;;;;;;;71.43;33.15;;;2.70;99.90;;;;;;5052275;28;20025;-74
2022/03/02 06:13:01;;;;;;;69.75;33.97;;;2.70;99.90;;;;;;5052303;28;20408;-73
2022/03/02 06:15:27;;;;;;;76.10;34.45;;;2.70;99.90;;;;;;5034152;28;20077;-73
2022/03/02 06:17:53;;;;;;;66.75;32.83;;;2.80;99.90;;;;;;5054605;28;20040;-74
2022/03/02 06:20:19;;;;;;;69.88;33.53;;;2.80;99.90;;;;;;5055562;28;20087;-74
2022/03/02 06:22:45;;;;;;;70.30;34.00;;;2.80;99.90;;;;;;5039714;28;20025;-75
2022/03/02 06:25:11;;;;;;;69.18;33.08;;;2.70;99.90;;;;;;5040951;28;20059;-76
2022/03/02 06:27:38;;;;;;;69.85;33.20;;;2.80;99.90;;;;;;5055656;28;20423;-76
2022/03/02 06:30:07;;;;;;;60.38;30.88;;;2.70;99.90;;;;;;5060309;28;20047;-75
2022/03/02 06:32:34;;;;;;;64.63;31.83;;;2.70;99.90;;;;;;5037709;28;20177;-74
2022/03/02 06:35:00;;;;;;;70.80;32.35;;;2.70;99.90;;;;;;5052648;28;20040;-75
2022/03/02 06:37:26;;;;;;;63.63;31.55;;;2.80;99.90;;;;;;5052241;28;20064;-75
2022/03/02 06:39:55;;;;;;;69.97;32.67;;;2.80;99.90;;;;;;5053838;28;20083;-74
2022/03/02 06:42:26;;;;;;;67.78;31.70;;;2.90;99.90;;;;;;5055151;28;20051;-75
2022/03/02 06:45:14;;;;;;;64.75;32.30;;;2.80;99.90;;;;;;5054701;28;20021;-75
2022/03/02 06:47:52;;;;;;;69.97;32.55;;;2.90;99.90;;;;;;5052947;28;20442;-77
2022/03/02 06:50:23;;;;;;;65.53;32.40;;;2.90;99.90;;;;;;5056260;28;20099;-76
2022/03/02 06:52:53;;;;;;;71.00;32.67;;;2.90;99.90;;;;;;5039037;28;20020;-75
2022/03/02 06:55:18;;;;;;;65.15;32.22;;;2.80;99.90;;;;;;5057005;28;20036;-75
2022/03/02 06:57:56;;;;;;;65.05;31.10;;;2.90;99.90;;;;;;5057594;28;20033;-76
2022/03/02 07:00:23;;;;;;;57.25;31.17;;;2.90;99.90;;;;;;5057966;28;20017;-76
2022/03/02 07:03:04;;;;;;;65.10;31.48;;;2.80;99.90;;;;;;5056637;28;20025;-75
2022/03/02 07:05:31;;;;;;;61.08;31.58;;;2.90;99.90;;;;;;5055780;28;20113;-75
2022/03/02 07:08:00;;;;;;;67.07;32.63;;;2.80;99.90;;;;;;5041784;28;20075;-73
2022/03/02 07:10:26;;;;;;;79.90;34.70;;;2.80;99.90;;;;;;5045820;28;20026;-74
2022/03/02 07:12:53;;;;;;;70.70;34.13;;;2.80;99.90;;;;;;5056999;28;20029;-75
2022/03/02 07:15:19;;;;;;;74.57;36.83;;;2.90;99.90;;;;;;5056829;28;20040;-73
2022/03/02 07:17:44;;;;;;;73.20;34.75;;;2.90;99.90;;;;;;5060996;28;20029;-74
2022/03/02 07:20:11;;;;;;;70.75;34.72;;;3.00;99.90;;;;;;5044137;28;20033;-73
2022/03/02 07:22:43;;;;;;;77.00;37.15;;;3.10;99.90;;;;;;5041752;28;20075;-74
2022/03/02 07:25:15;;;;;;;74.78;37.03;;;3.20;99.90;;;;;;5055340;28;20105;-74
2022/03/02 07:27:41;;;;;;;80.20;37.90;;;3.20;99.90;;;;;;5056154;28;20129;-74
2022/03/02 07:30:09;;;;;;;87.53;37.25;;;3.30;99.90;;;;;;5054717;28;20021;-72
2022/03/02 07:32:41;;;;;;;77.50;37.92;;;3.30;99.90;;;;;;5055467;28;20036;-73
2022/03/02 07:35:07;;;;;;;74.55;37.28;;;3.40;99.90;;;;;;5045403;28;20021;-73
2022/03/02 07:37:33;;;;;;;86.85;40.25;;;3.40;99.90;;;;;;5054157;28;20082;-73
2022/03/02 07:39:59;;;;;;;83.78;39.22;;;3.50;99.90;;;;;;5056006;28;20036;-75
2022/03/02 07:42:25;;;;;;;81.75;38.10;;;3.60;99.90;;;;;;5055514;28;20037;-74
2022/03/02 07:44:52;;;;;;;80.53;39.13;;;3.70;99.90;;;;;;5054821;28;20025;-73
2022/03/02 07:47:18;;;;;;;80.07;39.47;;;3.90;99.90;;;;;;5054288;28;20025;-74
2022/03/02 07:49:46;;;;;;;75.63;39.03;;;3.90;99.90;;;;;;5057845;28;20029;-73
2022/03/02 07:52:13;;;;;;;78.35;38.00;;;4.00;99.90;;;;;;5060925;28;20081;-74
2022/03/02 07:54:41;;;;;;;74.25;37.97;;;4.10;99.90;;;;;;5055044;28;20481;-73
2022/03/02 07:57:08;;;;;;;82.53;39.25;;;4.20;99.90;;;;;;5054870;28;20035;-76
2022/03/02 07:59:39;;;;;;;76.57;37.53;;;4.30;99.90;;;;;;5055857;28;20033;-77
2022/03/02 08:02:07;;;;;;;70.55;36.33;;;4.40;99.90;;;;;;5054772;28;20037;-74
2022/03/02 08:04:36;;;;;;;70.00;36.95;;;4.50;99.90;;;;;;5055695;28;20481;-75
2022/03/02 08:07:02;;;;;;;74.45;36.05;;;4.60;99.90;;;;;;5054158;28;20056;-73
2022/03/02 08:09:31;;;;;;;76.65;35.85;;;4.80;99.90;;;;;;5053941;28;20389;-73
2022/03/02 08:11:58;;;;;;;74.13;35.28;;;4.90;99.90;;;;;;5055575;28;20385;-75
2022/03/02 08:14:24;;;;;;;67.40;34.50;;;5.00;99.90;;;;;;5055729;28;20025;-74
2022/03/02 08:16:51;;;;;;;81.03;38.00;;;5.20;99.90;;;;;;5055864;28;20055;-75
2022/03/02 08:19:18;;;;;;;66.55;36.08;;;5.30;99.90;;;;;;5060113;28;20025;-75
2022/03/02 08:21:55;;;;;;;71.88;35.25;;;5.50;99.90;;;;;;5058015;28;20053;-76
2022/03/02 08:24:26;;;;;;;67.18;34.38;;;5.70;99.90;;;;;;5062241;28;20061;-74
2022/03/02 08:26:56;;;;;;;60.33;32.10;;;5.90;99.90;;;;;;5045880;28;20367;-74
2022/03/02 08:29:25;;;;;;;69.95;33.72;;;6.00;99.90;;;;;;5043586;28;20028;-76
2022/03/02 08:31:52;;;;;;;64.85;33.97;;;6.20;99.90;;;;;;5054681;28;20025;-74
2022/03/02 08:34:18;;;;;;;71.50;33.13;;;6.80;99.90;;;;;;5055455;28;20021;-73
2022/03/02 08:36:44;;;;;;;65.80;31.50;;;7.50;99.90;;;;;;5053041;28;20052;-73
2022/03/02 08:39:12;;;;;;;59.20;29.63;;;8.30;99.90;;;;;;5053026;28;20442;-72
2022/03/02 08:41:39;;;;;;;62.78;28.95;;;9.30;99.90;;;;;;5053080;28;20057;-74
2022/03/02 08:44:06;;;;;;;60.90;30.73;;;10.10;99.90;;;;;;5053028;28;20028;-73
2022/03/02 08:46:32;;;;;;;60.67;29.50;;;10.70;99.90;;;;;;5035454;28;20096;-73
2022/03/02 08:48:57;;;;;;;55.05;28.33;;;11.30;99.90;;;;;;5054251;28;20188;-73
2022/03/02 08:51:25;;;;;;;53.08;27.42;;;11.40;99.90;;;;;;5053006;28;20524;-72
2022/03/02 08:53:54;;;;;;;52.63;26.65;;;11.90;99.90;;;;;;5053292;28;20117;-73
2022/03/02 08:56:20;;;;;;;47.22;25.70;;;12.40;99.90;;;;;;5034684;28;20029;-73
2022/03/02 08:58:46;;;;;;;65.07;28.45;;;13.00;99.90;;;;;;5035270;28;20561;-73
2022/03/02 09:01:14;;;;;;;53.85;26.10;;;13.20;99.90;;;;;;5053177;28;20087;-73
2022/03/02 09:03:48;;;;;;;46.22;24.75;;;13.60;99.40;;;;;;5052903;28;20025;-73
2022/03/02 09:06:18;;;;;;;43.78;25.02;;;14.30;97.10;;;;;;5052494;28;20025;-73
2022/03/02 09:08:43;;;;;;;49.47;26.88;;;14.70;95.20;;;;;;5040482;28;20029;-75
2022/03/02 09:11:09;;;;;;;46.53;25.80;;;14.80;94.20;;;;;;5052970;28;20147;-74
2022/03/02 09:13:38;;;;;;;43.53;24.83;;;15.50;92.70;;;;;;5053364;28;20078;-73
2022/03/02 09:16:05;;;;;;;47.78;25.63;;;16.00;91.50;;;;;;5051218;28;20017;-72
2022/03/02 09:18:31;;;;;;;44.72;24.85;;;16.40;85.60;;;;;;5052308;28;20029;-72
2022/03/02 09:21:01;;;;;;;47.13;25.58;;;17.10;82.80;;;;;;5035404;28;20029;-73
2022/03/02 09:23:30;;;;;;;46.38;25.50;;;17.50;82.50;;;;;;5053089;28;20405;-74
2022/03/02 09:26:05;;;;;;;41.13;23.92;;;18.10;79.10;;;;;;5034470;28;20108;-73
2022/03/02 09:28:36;;;;;;;40.13;23.25;;;18.40;70.80;;;;;;5054471;28;20021;-74
2022/03/02 09:31:05;;;;;;;41.85;24.10;;;18.40;66.20;;;;;;5052157;28;20104;-73
2022/03/02 09:33:31;;;;;;;41.95;23.80;;;18.40;65.60;;;;;;5052043;28;20021;-73
2022/03/02 09:35:59;;;;;;;36.00;22.40;;;18.70;64.60;;;;;;5051753;28;20074;-74
2022/03/02 09:38:27;;;;;;;40.30;22.52;;;18.50;62.30;;;;;;5034224;28;20033;-75
2022/03/02 09:40:55;;;;;;;34.80;20.35;;;19.10;59.50;;;;;;5052764;28;20044;-75
2022/03/02 09:43:25;;;;;;;45.40;22.90;;;19.70;56.30;;;;;;5053214;28;20043;-74
2022/03/02 09:45:56;;;;;;;38.40;21.75;;;19.70;55.70;;;;;;5051747;28;20516;-74
2022/03/02 09:48:46;;;;;;;35.13;20.90;;;20.00;55.40;;;;;;5052256;28;20470;-74
2022/03/02 09:51:20;;;;;;;32.35;20.10;;;20.60;53.40;;;;;;5052071;28;20407;-75
2022/03/02 09:53:48;;;;;;;38.40;20.50;;;21.20;51.00;;;;;;5053804;28;20114;-74
2022/03/02 09:56:15;;;;;;;29.50;18.95;;;21.80;48.90;;;;;;5052885;28;20468;-74
2022/03/02 09:58:42;;;;;;;29.75;18.15;;;22.70;47.90;;;;;;5052982;28;20474;-74
2022/03/02 10:01:14;;;;;;;31.42;18.40;;;23.40;44.80;;;;;;5035030;28;20041;-75
2022/03/02 10:03:47;;;;;;;29.05;18.70;;;22.90;43.40;;;;;;5051835;28;20031;-74
2022/03/02 10:06:13;;;;;;;32.70;19.38;;;23.40;41.90;;;;;;5051641;28;20045;-74
2022/03/02 10:08:51;;;;;;;28.77;18.50;;;23.70;41.40;;;;;;5033852;28;20029;-73
2022/03/02 10:11:23;;;;;;;30.00;19.55;;;23.90;40.90;;;;;;5054979;28;20477;-73
2022/03/02 10:13:50;;;;;;;28.88;18.10;;;24.10;40.90;;;;;;5053179;28;20025;-73
2022/03/02 10:16:21;;;;;;;34.55;20.55;;;23.70;40.30;;;;;;5033984;28;20079;-73
2022/03/02 10:18:55;;;;;;;29.92;18.58;;;23.50;39.10;;;;;;5052268;28;20036;-73
2022/03/02 10:21:27;;;;;;;29.33;18.92;;;23.20;40.10;;;;;;5051741;28;20024;-73
2022/03/02 10:24:00;;;;;;;29.80;18.85;;;23.40;40.40;;;;;;5052625;28;20064;-73
2022/03/02 10:26:28;;;;;;;28.67;18.27;;;23.30;39.70;;;;;;5055268;28;20489;-73
2022/03/02 10:29:07;;;;;;;32.67;19.17;;;23.00;39.80;;;;;;5055510;28;20040;-73
2022/03/02 10:31:59;;;;;;;33.70;18.92;;;23.10;40.80;;;;;;5055647;28;20033;-75
2022/03/02 10:34:31;;;;;;;32.00;18.67;;;23.40;40.00;;;;;;5055612;28;20021;-74
2022/03/02 10:37:08;;;;;;;27.95;17.45;;;23.40;39.50;;;;;;5054950;28;20021;-74
2022/03/02 10:39:57;;;;;;;31.33;19.05;;;23.30;39.10;;;;;;5055208;28;20074;-74
2022/03/02 10:42:33;;;;;;;28.40;18.75;;;23.30;39.00;;;;;;5055185;28;20029;-76
2022/03/02 10:45:17;;;;;;;35.60;18.27;;;23.00;39.40;;;;;;5055110;28;20056;-74
2022/03/02 10:47:56;;;;;;;29.83;18.23;;;23.50;38.80;;;;;;5055467;28;20086;-73
2022/03/02 10:50:24;;;;;;;35.72;21.10;;;23.70;38.30;;;;;;5037669;28;20021;-73
2022/03/02 10:52:53;;;;;;;27.95;17.92;;;23.50;38.10;;;;;;5055488;28;20021;-74
2022/03/02 10:55:20;;;;;;;31.73;18.88;;;24.20;39.10;;;;;;5057068;28;20071;-75
2022/03/02 10:57:48;;;;;;;32.10;18.55;;;24.80;38.10;;;;;;5059325;28;20085;-73
2022/03/02 11:00:17;;;;;;;30.83;17.98;;;24.70;36.50;;;;;;5056202;28;20055;-74
2022/03/02 11:02:48;;;;;;;33.10;20.00;;;25.30;36.10;;;;;;5038087;28;20044;-72
2022/03/02 11:05:16;;;;;;;30.67;19.08;;;25.00;35.40;;;;;;5054715;28;20116;-73
2022/03/02 11:07:42;;;;;;;26.85;17.95;;;24.50;35.90;;;;;;5056654;28;20021;-73
2022/03/02 11:10:10;;;;;;;35.15;18.35;;;24.80;35.70;;;;;;5055253;28;20638;-75
2022/03/02 11:12:41;;;;;;;32.95;18.77;;;24.50;35.60;;;;;;5056024;28;20017;-75
2022/03/02 11:15:07;;;;;;;29.30;18.05;;;24.70;36.10;;;;;;5057173;28;20075;-77
2022/03/02 11:17:33;;;;;;;28.23;17.88;;;25.20;35.70;;;;;;5043194;28;20041;-74
2022/03/02 11:20:09;;;;;;;31.45;20.02;;;25.60;35.20;;;;;;5059810;28;20037;-74
2022/03/02 11:22:36;;;;;;;31.75;18.10;;;25.20;34.50;;;;;;5055353;28;20428;-74
2022/03/02 11:25:03;;;;;;;28.60;18.42;;;25.60;37.50;;;;;;5054776;28;20032;-74
2022/03/02 11:27:37;;;;;;;30.40;19.17;;;25.90;35.30;;;;;;5055594;28;20052;-74
2022/03/02 11:30:13;;;;;;;29.47;19.67;;;25.50;35.20;;;;;;5055287;28;20044;-73
2022/03/02 11:32:41;;;;;;;31.38;19.45;;;25.40;34.70;;;;;;5055058;28;20151;-75
2022/03/02 11:35:09;;;;;;;31.67;20.98;;;25.30;35.00;;;;;;5054313;28;20051;-73
2022/03/02 11:37:35;;;;;;;29.30;19.60;;;25.60;35.10;;;;;;5054021;28;20032;-73
2022/03/02 11:40:05;;;;;;;33.40;20.92;;;25.20;34.40;;;;;;5036412;28;20363;-73
2022/03/02 11:42:32;;;;;;;33.83;20.92;;;25.80;34.80;;;;;;5053917;28;20036;-73
2022/03/02 11:44:59;;;;;;;32.72;21.20;;;26.00;34.50;;;;;;5054377;28;20470;-74
2022/03/02 11:47:37;;;;;;;30.67;20.13;;;25.80;33.90;;;;;;5053790;28;20501;-74
2022/03/02 11:50:11;;;;;;;29.00;20.45;;;25.70;34.70;;;;;;5053853;28;20032;-74
2022/03/02 11:52:44;;;;;;;32.05;20.55;;;25.70;33.80;;;;;;5054096;28;20040;-74
2022/03/02 11:55:16;;;;;;;32.80;21.80;;;25.30;34.80;;;;;;5053653;28;20048;-74
2022/03/02 11:57:46;;;;;;;32.00;21.02;;;25.50;34.80;;;;;;5054135;28;20397;-74
2022/03/02 12:00:19;;;;;;;29.83;21.13;;;25.70;34.90;;;;;;5054489;28;20017;-74
2022/03/02 12:02:54;;;;;;;31.60;20.50;;;25.80;34.30;;;;;;5054750;23;20057;-78
2022/03/02 12:05:24;;;;;;;;;;;25.90;34.20;;;;;;5040412;28;20478;-77
2022/03/02 12:07:59;;;;;;;41.67;22.23;;;26.00;34.20;;;;;;5040218;28;19988;-76
2022/03/02 12:10:34;;;;;;;32.63;20.83;;;26.70;34.60;;;;;;5039745;28;20049;-77
2022/03/02 12:13:00;;;;;;;31.90;21.10;;;27.80;34.00;;;;;;5041712;28;20104;-76
2022/03/02 12:15:40;;;;;;;30.63;20.90;;;27.60;32.80;;;;;;5047678;28;20466;-76
2022/03/02 12:18:10;;;;;;;33.15;21.33;;;26.90;32.80;;;;;;5031466;28;20036;-78
2022/03/02 12:21:01;;;;;;;32.78;21.67;;;26.00;33.80;;;;;;5047899;28;20026;-76
2022/03/02 12:23:30;;;;;;;32.97;20.83;;;25.20;34.50;;;;;;5051182;28;20026;-77
2022/03/02 12:25:58;;;;;;;36.05;21.55;;;25.60;35.30;;;;;;5042488;28;20049;-79
2022/03/02 12:28:24;;;;;;;32.95;21.95;;;25.80;35.10;;;;;;5040020;28;20155;-77
2022/03/02 12:30:50;;;;;;;33.10;21.10;;;25.80;34.20;;;;;;5042128;28;20041;-78
2022/03/02 12:33:20;;;;;;;39.55;21.60;;;25.80;34.50;;;;;;5039647;28;20209;-80
2022/03/02 12:35:46;;;;;;;37.00;23.63;;;25.90;34.10;;;;;;5022035;28;20030;-78